createdAt,value
2022-11-04T00:04:28.390Z,10.85
2022-11-04T00:09:31.623Z,10.91
2022-11-04T00:14:36.755Z,10.92
2022-11-04T00:19:56.853Z,10.93
2022-11-04T00:25:16.948Z,11.02
2022-11-04T00:30:21.376Z,10.96
2022-11-04T00:35:24.251Z,10.95
2022-11-04T00:40:27.013Z,10.97
2022-11-04T00:45:31.092Z,10.96
2022-11-04T00:50:33.888Z,10.81
2022-11-04T00:55:36.624Z,10.71
2022-11-04T01:00:40.726Z,10.75
2022-11-04T01:05:44.579Z,10.82
2022-11-04T01:10:47.331Z,10.93
2022-11-04T01:15:51.482Z,10.94
2022-11-04T01:20:54.676Z,10.88
2022-11-04T01:25:57.617Z,10.98
2022-11-04T01:31:07.135Z,10.94
2022-11-04T01:36:11.970Z,10.98
2022-11-04T01:41:20.156Z,10.96
2022-11-04T01:46:30.707Z,10.96
2022-11-04T01:51:35.510Z,11.23
2022-11-04T01:56:39.553Z,11.11
2022-11-04T02:01:44.433Z,11.14
2022-11-04T02:06:48.534Z,11.35
2022-11-04T02:12:08.817Z,11.32
2022-11-04T02:17:30.156Z,11.35
2022-11-04T02:23:01.066Z,11.21
2022-11-04T02:28:27.369Z,11.40
2022-11-04T02:33:38.328Z,11.48
2022-11-04T02:38:52.077Z,11.53
2022-11-04T02:44:03.542Z,11.37
2022-11-04T02:49:12.118Z,11.33
2022-11-04T02:54:20.904Z,11.45
2022-11-04T02:59:31.633Z,11.52
2022-11-04T03:04:40.174Z,11.58
2022-11-04T03:09:49.535Z,11.42
2022-11-04T03:14:56.192Z,11.51
2022-11-04T03:20:02.414Z,11.53
2022-11-04T03:25:08.002Z,11.53
2022-11-04T03:30:15.397Z,11.48
2022-11-04T03:35:20.555Z,11.48
2022-11-04T03:40:23.565Z,11.60
2022-11-04T03:45:26.774Z,11.69
2022-11-04T03:50:33.251Z,11.67
2022-11-04T03:55:44.626Z,11.68
2022-11-04T04:00:52.995Z,11.73
2022-11-04T04:06:01.001Z,11.62
2022-11-04T04:11:09.761Z,11.69
2022-11-04T04:16:20.072Z,11.59
2022-11-04T04:21:30.892Z,11.55
2022-11-04T04:26:52.620Z,11.64
2022-11-04T04:31:57.833Z,11.58
2022-11-04T04:37:06.436Z,11.62
2022-11-04T04:42:27.425Z,11.67
2022-11-04T04:47:35.787Z,11.54
2022-11-04T04:52:41.027Z,11.55
2022-11-04T04:57:43.891Z,11.54
2022-11-04T05:02:46.974Z,11.64
2022-11-04T05:07:51.222Z,11.54
2022-11-04T05:13:11.422Z,11.39
2022-11-04T05:18:14.247Z,11.63
2022-11-04T05:23:18.464Z,11.63
2022-11-04T05:28:21.637Z,11.54
2022-11-04T05:33:24.520Z,11.62
2022-11-04T05:38:28.672Z,11.54
2022-11-04T05:43:31.475Z,11.49
2022-11-04T05:48:40.202Z,11.58
2022-11-04T05:53:44.899Z,11.52
2022-11-04T05:58:47.769Z,11.31
2022-11-04T06:03:50.637Z,11.53
2022-11-04T06:08:55.282Z,11.49
2022-11-04T06:13:58.953Z,11.43
2022-11-04T06:19:06.003Z,11.39
2022-11-04T06:24:14.355Z,11.50
2022-11-04T06:29:17.478Z,11.46
2022-11-04T06:34:20.362Z,11.32
2022-11-04T06:39:24.542Z,11.26
2022-11-04T06:44:27.297Z,11.15
2022-11-04T06:49:30.186Z,11.10
2022-11-04T06:54:34.655Z,10.99
2022-11-04T06:59:37.401Z,10.85
2022-11-04T07:04:40.172Z,11.18
2022-11-04T07:09:44.768Z,11.07
2022-11-04T07:14:47.776Z,10.99
2022-11-04T07:19:50.613Z,11.10
2022-11-04T07:24:54.757Z,11.32
2022-11-04T07:29:57.539Z,11.15
2022-11-04T07:35:00.400Z,11.15
2022-11-04T07:40:05.112Z,10.96
2022-11-04T07:45:08.690Z,10.90
2022-11-04T07:50:13.639Z,10.93
2022-11-04T07:55:18.690Z,11.20
2022-11-04T08:00:21.780Z,11.43
2022-11-04T08:05:24.724Z,11.56
2022-11-04T08:10:29.032Z,11.53
2022-11-04T08:15:31.861Z,11.77
2022-11-04T08:20:34.693Z,11.97
2022-11-04T08:25:38.777Z,11.94
2022-11-04T08:30:41.531Z,11.90
2022-11-04T08:35:44.309Z,11.85
2022-11-04T08:40:49.006Z,12.05
2022-11-04T08:45:51.798Z,12.23
2022-11-04T08:50:56.454Z,12.11
2022-11-04T08:56:00.673Z,11.91
2022-11-04T09:01:05.042Z,11.87
2022-11-04T09:06:10.945Z,12.20
2022-11-04T09:11:16.723Z,12.13
2022-11-04T09:16:33.369Z,12.34
2022-11-04T09:21:36.309Z,12.81
2022-11-04T09:26:40.533Z,12.93
2022-11-04T09:31:44.279Z,12.58
2022-11-04T09:36:47.616Z,12.44
2022-11-04T09:42:04.292Z,12.58
2022-11-04T09:47:11.984Z,12.82
2022-11-04T09:52:19.837Z,12.60
2022-11-04T09:57:24.455Z,13.27
2022-11-04T10:02:43.560Z,13.04
2022-11-04T10:08:02.720Z,13.29
2022-11-04T10:13:23.233Z,13.05
2022-11-04T10:18:36.607Z,12.88
2022-11-04T10:23:44.362Z,12.96
2022-11-04T10:28:55.651Z,13.24
2022-11-04T10:34:06.270Z,12.87
2022-11-04T10:39:18.350Z,12.88
2022-11-04T10:44:26.741Z,12.76
2022-11-04T10:49:39.363Z,12.92
2022-11-04T10:54:44.562Z,12.96
2022-11-04T10:59:55.813Z,12.97
2022-11-04T11:05:14.921Z,13.09
2022-11-04T11:10:20.146Z,13.06
2022-11-04T11:15:32.797Z,12.87
2022-11-04T11:20:38.294Z,13.17
2022-11-04T11:25:46.878Z,13.44
2022-11-04T11:30:58.855Z,13.68
2022-11-04T11:36:06.820Z,13.64
2022-11-04T11:41:28.198Z,13.56
2022-11-04T11:46:34.997Z,13.25
2022-11-04T11:51:39.545Z,13.48
2022-11-04T11:57:12.037Z,13.85
2022-11-04T12:02:26.518Z,14.06
2022-11-04T12:13:23.614Z,13.97
2022-11-04T12:18:43.939Z,14.04
2022-11-04T12:23:51.309Z,13.59
2022-11-04T12:29:29.834Z,13.87
2022-11-04T12:34:45.714Z,13.75
2022-11-04T12:40:02.537Z,13.79
2022-11-04T12:45:19.394Z,13.99
2022-11-04T12:50:38.753Z,13.77
2022-11-04T12:55:50.869Z,13.99
2022-11-04T13:00:59.856Z,13.63
2022-11-04T13:06:11.166Z,13.57
2022-11-04T13:11:24.798Z,13.57
2022-11-04T13:16:29.487Z,13.51
2022-11-04T13:21:37.442Z,13.74
2022-11-04T13:26:40.617Z,13.61
2022-11-04T13:31:50.819Z,13.69
2022-11-04T13:37:05.606Z,13.53
2022-11-04T13:42:37.194Z,13.32
2022-11-04T13:47:48.570Z,13.37
2022-11-04T13:52:53.122Z,13.39
2022-11-04T13:58:02.709Z,13.21
2022-11-04T14:03:38.792Z,13.17
2022-11-04T14:09:21.649Z,13.20
2022-11-04T14:14:24.616Z,13.28
2022-11-04T14:20:11.843Z,13.23
2022-11-04T14:25:27.369Z,13.01
2022-11-04T14:30:49.556Z,13.24
2022-11-04T14:35:54.154Z,13.23
2022-11-04T14:41:23.821Z,13.24
2022-11-04T14:46:29.809Z,13.14
2022-11-04T14:51:41.894Z,13.03
2022-11-04T14:56:46.772Z,13.02
2022-11-04T15:01:52.510Z,13.16
2022-11-04T15:06:56.166Z,12.97
2022-11-04T15:12:29.907Z,12.74
2022-11-04T15:17:34.570Z,12.52
2022-11-04T15:22:38.945Z,12.30
2022-11-04T15:27:43.171Z,12.34
2022-11-04T15:32:57.989Z,12.13
2022-11-04T15:38:05.325Z,12.06
2022-11-04T15:43:10.156Z,12.10
2022-11-04T15:48:24.669Z,12.25
2022-11-04T15:53:28.711Z,12.31
2022-11-04T15:58:33.095Z,12.29
2022-11-04T16:03:35.956Z,12.09
2022-11-04T16:08:38.899Z,12.04
2022-11-04T16:13:44.475Z,11.93
2022-11-04T16:18:53.653Z,11.90
2022-11-04T16:24:01.412Z,11.72
2022-11-04T16:29:12.643Z,11.60
2022-11-04T16:34:15.383Z,11.42
2022-11-04T16:39:18.150Z,11.43
2022-11-04T16:44:23.958Z,11.41
2022-11-04T16:49:27.189Z,11.19
2022-11-04T16:54:30.130Z,11.19
2022-11-04T16:59:34.261Z,11.11
2022-11-04T17:04:37.361Z,11.10
2022-11-04T17:09:41.570Z,10.98
2022-11-04T17:14:45.710Z,10.92
2022-11-04T17:19:48.562Z,10.67
2022-11-04T17:24:51.342Z,10.60
2022-11-04T17:29:55.449Z,10.75
2022-11-04T17:34:58.191Z,10.82
2022-11-04T17:40:01.025Z,10.73
2022-11-04T17:45:06.251Z,10.49
2022-11-04T17:50:10.175Z,10.32
2022-11-04T17:55:17.262Z,10.38
2022-11-04T18:00:25.845Z,10.45
2022-11-04T18:05:29.112Z,10.60
2022-11-04T18:10:32.012Z,10.56
2022-11-04T18:15:36.204Z,10.60
2022-11-04T18:20:38.990Z,10.73
2022-11-04T18:25:50.450Z,10.75
2022-11-04T18:30:55.194Z,10.61
2022-11-04T18:36:04.400Z,10.45
2022-11-04T18:41:07.280Z,10.43
2022-11-04T18:46:15.449Z,10.30
2022-11-04T18:51:20.599Z,10.12
2022-11-04T18:56:24.462Z,9.94
2022-11-04T19:01:31.251Z,9.80
2022-11-04T19:21:52.928Z,9.41
2022-11-04T19:56:43.417Z,9.11
2022-11-04T20:01:53.148Z,9.00
2022-11-04T20:14:20.022Z,9.10
2022-11-04T20:19:28.220Z,9.10
2022-11-04T20:24:45.851Z,8.97
2022-11-04T20:50:17.228Z,8.77
2022-11-04T21:34:45.325Z,8.18
2022-11-04T21:39:50.945Z,8.16
2022-11-04T21:44:53.904Z,8.14
2022-11-04T21:49:57.157Z,8.05
2022-11-04T21:55:01.861Z,8.06
2022-11-04T22:00:06.280Z,8.03
2022-11-04T22:05:11.336Z,8.00
2022-11-04T22:10:15.591Z,7.93
2022-11-04T22:15:39.374Z,7.93
2022-11-04T22:20:42.151Z,8.02
2022-11-04T22:25:50.168Z,8.09
2022-11-04T22:30:53.591Z,8.20
2022-11-04T22:35:56.342Z,8.17
2022-11-04T22:41:01.546Z,7.99
2022-11-04T22:46:08.476Z,7.80
2022-11-04T22:51:12.342Z,7.69
2022-11-04T22:56:16.487Z,7.62
2022-11-04T23:01:19.432Z,7.53
2022-11-04T23:06:22.259Z,7.47
2022-11-04T23:11:45.711Z,7.43
2022-11-04T23:17:07.940Z,7.41
2022-11-04T23:22:28.696Z,7.37
2022-11-04T23:27:50.793Z,7.32
2022-11-04T23:32:56.053Z,7.25
2022-11-04T23:37:59.869Z,7.22
2022-11-04T23:43:04.100Z,7.28
2022-11-04T23:48:25.225Z,7.18
2022-11-04T23:53:45.456Z,7.15
2022-11-04T23:59:06.836Z,7.09
